sensor_id;sensor_type;location;lat;lon;timestamp;pressure;altitude;pressure_sealevel;temperature;humidity
48926;BME280;39838;59.938;30.642;2023-05-15T00:02:10;101510.50;;;12.18;50.00
48926;BME280;39838;59.938;30.642;2023-05-15T00:04:39;101507.88;;;12.17;49.88
48926;BME280;39838;59.938;30.642;2023-05-15T00:07:06;101511.34;;;12.14;50.14
48926;BME280;39838;59.938;30.642;2023-05-15T00:09:33;101509.56;;;12.12;50.16
48926;BME280;39838;59.938;30.642;2023-05-15T00:12:02;101507.81;;;12.08;49.93
48926;BME280;39838;59.938;30.642;2023-05-15T00:14:30;101508.63;;;12.03;50.24
48926;BME280;39838;59.938;30.642;2023-05-15T00:16:57;101509.47;;;12.02;50.26
48926;BME280;39838;59.938;30.642;2023-05-15T00:19:25;101509.47;;;11.99;50.48
48926;BME280;39838;59.938;30.642;2023-05-15T00:21:52;101505.09;;;11.98;50.95
48926;BME280;39838;59.938;30.642;2023-05-15T00:24:20;101501.59;;;11.95;50.48
48926;BME280;39838;59.938;30.642;2023-05-15T00:26:48;101507.66;;;11.94;50.94
48926;BME280;39838;59.938;30.642;2023-05-15T00:29:16;101509.41;;;11.93;50.93
48926;BME280;39838;59.938;30.642;2023-05-15T00:31:44;101507.66;;;11.92;50.90
48926;BME280;39838;59.938;30.642;2023-05-15T00:34:11;101508.47;;;11.91;51.12
48926;BME280;39838;59.938;30.642;2023-05-15T00:36:39;101507.59;;;11.89;51.21
48926;BME280;39838;59.938;30.642;2023-05-15T00:39:06;101505.88;;;11.88;50.93
48926;BME280;39838;59.938;30.642;2023-05-15T00:41:34;101504.13;;;11.87;51.25
48926;BME280;39838;59.938;30.642;2023-05-15T00:44:03;101497.13;;;11.85;51.38
48926;BME280;39838;59.938;30.642;2023-05-15T00:46:34;101505.81;;;11.84;51.45
48926;BME280;39838;59.938;30.642;2023-05-15T00:49:03;101497.06;;;11.80;50.99
48926;BME280;39838;59.938;30.642;2023-05-15T00:51:31;101498.81;;;11.80;51.36
48926;BME280;39838;59.938;30.642;2023-05-15T00:53:58;101494.47;;;11.79;51.76
48926;BME280;39838;59.938;30.642;2023-05-15T00:56:26;101436.81;;;11.45;51.65
48926;BME280;39838;59.938;30.642;2023-05-15T00:58:56;101493.59;;;11.80;51.52
48926;BME280;39838;59.938;30.642;2023-05-15T01:01:25;101501.44;;;11.81;51.79
48926;BME280;39838;59.938;30.642;2023-05-15T01:03:55;101498.84;;;11.81;51.88
48926;BME280;39838;59.938;30.642;2023-05-15T01:06:22;101490.16;;;11.81;51.73
48926;BME280;39838;59.938;30.642;2023-05-15T01:08:50;101495.38;;;11.81;51.54
48926;BME280;39838;59.938;30.642;2023-05-15T01:11:19;101491.88;;;11.80;52.14
48926;BME280;39838;59.938;30.642;2023-05-15T01:13:47;101502.31;;;11.83;52.03
48926;BME280;39838;59.938;30.642;2023-05-15T01:16:14;101491.91;;;11.83;51.69
48926;BME280;39838;59.938;30.642;2023-05-15T01:18:41;101485.84;;;11.83;51.93
48926;BME280;39838;59.938;30.642;2023-05-15T01:24:22;101482.31;;;11.79;51.65
48926;BME280;39838;59.938;30.642;2023-05-15T01:27:16;101483.22;;;11.83;51.21
48926;BME280;39838;59.938;30.642;2023-05-15T01:29:52;101489.31;;;11.85;51.38
48926;BME280;39838;59.938;30.642;2023-05-15T01:32:29;101487.56;;;11.84;51.43
48926;BME280;39838;59.938;30.642;2023-05-15T01:35:05;101482.38;;;11.84;51.61
48926;BME280;39838;59.938;30.642;2023-05-15T01:37:39;101485.88;;;11.86;51.69
48926;BME280;39838;59.938;30.642;2023-05-15T01:40:09;101471.94;;;11.82;51.67
48926;BME280;39838;59.938;30.642;2023-05-15T01:42:43;101482.50;;;11.96;51.87
48926;BME280;39838;59.938;30.642;2023-05-15T01:45:14;101499.06;;;12.02;51.82
48926;BME280;39838;59.938;30.642;2023-05-15T01:47:43;101472.94;;;11.95;51.98
48926;BME280;39838;59.938;30.642;2023-05-15T01:50:14;101487.84;;;12.10;51.73
48926;BME280;39838;59.938;30.642;2023-05-15T01:52:46;101489.63;;;12.15;51.50
48926;BME280;39838;59.938;30.642;2023-05-15T01:55:14;101486.22;;;12.19;51.50
48926;BME280;39838;59.938;30.642;2023-05-15T01:57:44;101480.09;;;12.19;51.54
48926;BME280;39838;59.938;30.642;2023-05-15T02:00:13;101476.69;;;12.24;51.55
48926;BME280;39838;59.938;30.642;2023-05-15T02:02:42;101484.53;;;12.27;51.81
48926;BME280;39838;59.938;30.642;2023-05-15T02:05:11;101481.94;;;12.29;51.61
48926;BME280;39838;59.938;30.642;2023-05-15T02:07:40;101487.16;;;12.30;51.56
48926;BME280;39838;59.938;30.642;2023-05-15T02:10:10;101488.03;;;12.31;51.24
48926;BME280;39838;59.938;30.642;2023-05-15T02:12:39;101488.03;;;12.31;51.62
48926;BME280;39838;59.938;30.642;2023-05-15T02:15:10;101484.59;;;12.34;51.34
48926;BME280;39838;59.938;30.642;2023-05-15T02:17:38;101482.00;;;12.35;51.63
48926;BME280;39838;59.938;30.642;2023-05-15T02:20:07;101488.09;;;12.37;51.69
48926;BME280;39838;59.938;30.642;2023-05-15T02:22:35;101482.88;;;12.39;51.73
48926;BME280;39838;59.938;30.642;2023-05-15T02:25:02;101482.88;;;12.39;51.26
48926;BME280;39838;59.938;30.642;2023-05-15T02:27:35;101474.13;;;12.30;51.36
48926;BME280;39838;59.938;30.642;2023-05-15T02:30:17;101481.06;;;12.32;51.26
48926;BME280;39838;59.938;30.642;2023-05-15T02:32:51;101476.78;;;12.34;51.63
48926;BME280;39838;59.938;30.642;2023-05-15T02:35:25;101475.91;;;12.35;51.62
48926;BME280;39838;59.938;30.642;2023-05-15T02:38:00;101477.66;;;12.36;51.74
48926;BME280;39838;59.938;30.642;2023-05-15T02:40:29;101481.19;;;12.42;51.73
48926;BME280;39838;59.938;30.642;2023-05-15T02:42:58;101482.09;;;12.47;51.64
48926;BME280;39838;59.938;30.642;2023-05-15T02:45:28;101475.16;;;12.52;51.45
48926;BME280;39838;59.938;30.642;2023-05-15T02:47:55;101477.81;;;12.58;51.60
48926;BME280;39838;59.938;30.642;2023-05-15T02:50:23;101478.78;;;12.67;51.16
48926;BME280;39838;59.938;30.642;2023-05-15T02:53:00;101479.66;;;12.70;51.12
48926;BME280;39838;59.938;30.642;2023-05-15T02:55:28;101477.94;;;12.75;50.86
48926;BME280;39838;59.938;30.642;2023-05-15T02:57:56;101484.03;;;12.77;50.99
48926;BME280;39838;59.938;30.642;2023-05-15T03:00:23;101481.47;;;12.85;51.18
48926;BME280;39838;59.938;30.642;2023-05-15T03:02:52;101480.66;;;12.94;51.34
48926;BME280;39838;59.938;30.642;2023-05-15T03:05:19;101479.84;;;13.01;50.75
48926;BME280;39838;59.938;30.642;2023-05-15T03:07:47;101477.25;;;13.07;50.80
48926;BME280;39838;59.938;30.642;2023-05-15T03:10:14;101474.66;;;13.13;50.50
48926;BME280;39838;59.938;30.642;2023-05-15T03:12:42;101475.56;;;13.20;50.66
48926;BME280;39838;59.938;30.642;2023-05-15T03:15:09;101468.72;;;13.28;50.72
48926;BME280;39838;59.938;30.642;2023-05-15T03:17:37;101467.00;;;13.41;50.11
48926;BME280;39838;59.938;30.642;2023-05-15T03:20:07;101478.34;;;13.50;50.01
48926;BME280;39838;59.938;30.642;2023-05-15T03:22:35;101470.53;;;13.59;49.82
48926;BME280;39838;59.938;30.642;2023-05-15T03:25:03;101468.84;;;13.77;49.60
48926;BME280;39838;59.938;30.642;2023-05-15T03:27:31;101477.63;;;13.96;49.27
48926;BME280;39838;59.938;30.642;2023-05-15T03:29:58;101471.50;;;14.09;49.12
48926;BME280;39838;59.938;30.642;2023-05-15T03:32:26;101475.03;;;14.23;49.04
48926;BME280;39838;59.938;30.642;2023-05-15T03:34:53;101471.50;;;14.29;48.79
48926;BME280;39838;59.938;30.642;2023-05-15T03:37:22;101471.53;;;14.33;48.84
48926;BME280;39838;59.938;30.642;2023-05-15T03:39:49;101473.25;;;14.40;48.56
48926;BME280;39838;59.938;30.642;2023-05-15T03:42:16;101473.31;;;14.50;48.34
48926;BME280;39838;59.938;30.642;2023-05-15T03:44:48;101475.03;;;14.49;48.81
48926;BME280;39838;59.938;30.642;2023-05-15T03:47:15;101473.28;;;14.53;48.80
48926;BME280;39838;59.938;30.642;2023-05-15T03:49:44;101456.72;;;14.43;49.03
48926;BME280;39838;59.938;30.642;2023-05-15T03:52:12;101477.66;;;14.57;48.30
48926;BME280;39838;59.938;30.642;2023-05-15T03:54:41;101475.00;;;14.63;48.55
48926;BME280;39838;59.938;30.642;2023-05-15T03:57:08;101471.53;;;14.70;49.01
48926;BME280;39838;59.938;30.642;2023-05-15T03:59:35;101477.63;;;14.78;48.39
48926;BME280;39838;59.938;30.642;2023-05-15T04:02:03;101474.97;;;14.89;48.50
48926;BME280;39838;59.938;30.642;2023-05-15T04:04:30;101474.06;;;15.02;48.01
48926;BME280;39838;59.938;30.642;2023-05-15T04:06:58;101475.81;;;15.06;47.89
48926;BME280;39838;59.938;30.642;2023-05-15T04:09:25;101467.94;;;15.12;48.34
48926;BME280;39838;59.938;30.642;2023-05-15T04:11:54;101468.81;;;15.11;47.91
48926;BME280;39838;59.938;30.642;2023-05-15T04:14:21;101467.91;;;15.20;47.68
48926;BME280;39838;59.938;30.642;2023-05-15T04:16:48;101468.78;;;15.25;47.51
48926;BME280;39838;59.938;30.642;2023-05-15T04:19:16;101467.88;;;15.29;47.65
48926;BME280;39838;59.938;30.642;2023-05-15T04:21:43;101465.22;;;15.35;47.35
48926;BME280;39838;59.938;30.642;2023-05-15T04:24:11;101466.94;;;15.42;47.36
48926;BME280;39838;59.938;30.642;2023-05-15T04:26:38;101459.06;;;15.42;47.30
48926;BME280;39838;59.938;30.642;2023-05-15T04:29:08;101460.81;;;15.42;47.51
48926;BME280;39838;59.938;30.642;2023-05-15T04:31:35;101459.03;;;15.54;47.09
48926;BME280;39838;59.938;30.642;2023-05-15T04:34:03;101460.75;;;15.63;47.47
48926;BME280;39838;59.938;30.642;2023-05-15T04:36:31;101452.88;;;15.60;47.42
48926;BME280;39838;59.938;30.642;2023-05-15T04:38:58;101458.97;;;15.68;47.36
48926;BME280;39838;59.938;30.642;2023-05-15T04:41:26;101451.03;;;15.80;47.06
48926;BME280;39838;59.938;30.642;2023-05-15T04:43:53;101453.66;;;15.80;46.96
48926;BME280;39838;59.938;30.642;2023-05-15T04:46:22;101451.03;;;15.80;46.98
48926;BME280;39838;59.938;30.642;2023-05-15T04:48:50;101448.41;;;15.82;47.28
48926;BME280;39838;59.938;30.642;2023-05-15T04:51:17;101451.03;;;15.80;47.21
48926;BME280;39838;59.938;30.642;2023-05-15T04:53:44;101452.78;;;15.81;47.11
48926;BME280;39838;59.938;30.642;2023-05-15T04:56:11;101451.00;;;15.83;47.32
48926;BME280;39838;59.938;30.642;2023-05-15T04:58:39;101448.34;;;15.90;47.61
48926;BME280;39838;59.938;30.642;2023-05-15T05:01:06;101450.00;;;16.03;47.11
48926;BME280;39838;59.938;30.642;2023-05-15T05:03:35;101446.44;;;16.15;46.89
48926;BME280;39838;59.938;30.642;2023-05-15T05:06:02;101450.72;;;16.26;46.60
48926;BME280;39838;59.938;30.642;2023-05-15T05:08:29;101448.88;;;16.36;46.40
48926;BME280;39838;59.938;30.642;2023-05-15T05:10:56;101452.38;;;16.35;46.37
48926;BME280;39838;59.938;30.642;2023-05-15T05:13:24;101452.38;;;16.32;46.70
48926;BME280;39838;59.938;30.642;2023-05-15T05:15:51;101450.66;;;16.29;46.78
48926;BME280;39838;59.938;30.642;2023-05-15T05:18:18;101445.47;;;16.26;46.70
48926;BME280;39838;59.938;30.642;2023-05-15T05:20:47;101448.09;;;16.26;46.91
48926;BME280;39838;59.938;30.642;2023-05-15T05:23:15;101445.47;;;16.26;46.88
48926;BME280;39838;59.938;30.642;2023-05-15T05:25:43;101441.91;;;16.30;47.07
48926;BME280;39838;59.938;30.642;2023-05-15T05:28:10;101440.09;;;16.38;46.64
48926;BME280;39838;59.938;30.642;2023-05-15T05:30:37;101446.16;;;16.47;46.65
48926;BME280;39838;59.938;30.642;2023-05-15T05:33:05;101443.47;;;16.53;46.74
48926;BME280;39838;59.938;30.642;2023-05-15T05:35:32;101448.63;;;16.59;46.49
48926;BME280;39838;59.938;30.642;2023-05-15T05:38:01;101445.91;;;16.73;46.31
48926;BME280;39838;59.938;30.642;2023-05-15T05:40:28;101440.44;;;16.92;46.14
48926;BME280;39838;59.938;30.642;2023-05-15T05:42:58;101438.53;;;17.08;45.87
48926;BME280;39838;59.938;30.642;2023-05-15T05:45:26;101434.81;;;17.25;46.19
48926;BME280;39838;59.938;30.642;2023-05-15T05:47:54;101437.22;;;17.43;45.75
48926;BME280;39838;59.938;30.642;2023-05-15T05:50:21;101433.44;;;17.62;45.55
48926;BME280;39838;59.938;30.642;2023-05-15T05:52:49;101444.56;;;17.81;45.44
48926;BME280;39838;59.938;30.642;2023-05-15T05:55:17;101434.69;;;17.98;45.75
48926;BME280;39838;59.938;30.642;2023-05-15T05:57:45;101439.66;;;18.15;45.97
48926;BME280;39838;59.938;30.642;2023-05-15T06:00:14;101437.69;;;18.28;45.88
48926;BME280;39838;59.938;30.642;2023-05-15T06:02:41;101431.28;;;18.44;45.57
48926;BME280;39838;59.938;30.642;2023-05-15T06:05:08;101432.78;;;18.58;44.88
48926;BME280;39838;59.938;30.642;2023-05-15T06:07:36;101436.09;;;18.70;44.38
48926;BME280;39838;59.938;30.642;2023-05-15T06:10:04;101439.41;;;18.80;44.10
48926;BME280;39838;59.938;30.642;2023-05-15T06:12:33;101429.47;;;18.94;43.71
48926;BME280;39838;59.938;30.642;2023-05-15T06:15:01;101435.09;;;19.21;43.12
48926;BME280;39838;59.938;30.642;2023-05-15T06:17:30;101417.91;;;19.43;42.90
48926;BME280;39838;59.938;30.642;2023-05-15T06:19:57;101421.13;;;19.57;42.51
48926;BME280;39838;59.938;30.642;2023-05-15T06:22:25;101418.91;;;19.78;42.28
48926;BME280;39838;59.938;30.642;2023-05-15T06:24:52;101423.97;;;19.87;42.18
48926;BME280;39838;59.938;30.642;2023-05-15T06:27:19;101418.63;;;19.90;42.00
48926;BME280;39838;59.938;30.642;2023-05-15T06:29:48;101416.81;;;19.92;41.35
48926;BME280;39838;59.938;30.642;2023-05-15T06:32:15;101418.25;;;20.05;41.64
48926;BME280;39838;59.938;30.642;2023-05-15T06:34:42;101419.50;;;20.25;40.92
48926;BME280;39838;59.938;30.642;2023-05-15T06:37:10;101412.91;;;20.42;40.83
48926;BME280;39838;59.938;30.642;2023-05-15T06:39:37;101417.63;;;20.64;40.65
48926;BME280;39838;59.938;30.642;2023-05-15T06:42:05;101407.59;;;20.77;39.85
48926;BME280;39838;59.938;30.642;2023-05-15T06:44:32;101409.91;;;20.89;39.60
48926;BME280;39838;59.938;30.642;2023-05-15T06:47:02;101414.16;;;20.93;39.28
48926;BME280;39838;59.938;30.642;2023-05-15T06:49:29;101412.44;;;20.92;39.27
48926;BME280;39838;59.938;30.642;2023-05-15T06:51:56;101414.38;;;20.87;38.91
48926;BME280;39838;59.938;30.642;2023-05-15T06:54:24;101411.97;;;20.78;39.27
48926;BME280;39838;59.938;30.642;2023-05-15T06:56:51;101413.16;;;20.67;39.55
48926;BME280;39838;59.938;30.642;2023-05-15T06:59:19;101423.53;;;20.74;39.72
48926;BME280;39838;59.938;30.642;2023-05-15T07:01:46;101413.56;;;20.83;39.24
48926;BME280;39838;59.938;30.642;2023-05-15T07:04:15;101416.09;;;20.88;39.31
48926;BME280;39838;59.938;30.642;2023-05-15T07:06:42;101418.16;;;20.77;39.50
48926;BME280;39838;59.938;30.642;2023-05-15T07:09:09;101415.03;;;20.62;39.46
48926;BME280;39838;59.938;30.642;2023-05-15T07:11:37;101409.25;;;20.48;39.36
48926;BME280;39838;59.938;30.642;2023-05-15T07:14:05;101413.06;;;20.36;39.58
48926;BME280;39838;59.938;30.642;2023-05-15T07:16:33;101416.75;;;20.29;39.28
48926;BME280;39838;59.938;30.642;2023-05-15T07:19:00;101413.53;;;20.18;39.57
48926;BME280;39838;59.938;30.642;2023-05-15T07:21:29;101412.91;;;20.08;39.62
48926;BME280;39838;59.938;30.642;2023-05-15T07:23:57;101411.22;;;20.04;39.39
48926;BME280;39838;59.938;30.642;2023-05-15T07:26:24;101420.00;;;20.06;39.42
48926;BME280;39838;59.938;30.642;2023-05-15T07:28:51;101414.63;;;20.09;39.26
48926;BME280;39838;59.938;30.642;2023-05-15T07:31:19;101417.16;;;20.14;39.33
48926;BME280;39838;59.938;30.642;2023-05-15T07:33:47;101417.91;;;20.19;39.23
48926;BME280;39838;59.938;30.642;2023-05-15T07:36:14;101416.59;;;20.35;38.95
48926;BME280;39838;59.938;30.642;2023-05-15T07:38:43;101414.22;;;20.60;38.78
48926;BME280;39838;59.938;30.642;2023-05-15T07:41:10;101416.34;;;20.79;38.45
48926;BME280;39838;59.938;30.642;2023-05-15T07:43:37;101410.47;;;21.00;38.28
48926;BME280;39838;59.938;30.642;2023-05-15T07:46:05;101413.19;;;21.26;37.70
48926;BME280;39838;59.938;30.642;2023-05-15T07:48:32;101417.34;;;21.37;37.63
48926;BME280;39838;59.938;30.642;2023-05-15T07:50:59;101410.31;;;21.36;36.99
48926;BME280;39838;59.938;30.642;2023-05-15T07:53:27;101415.72;;;21.31;36.73
48926;BME280;39838;59.938;30.642;2023-05-15T07:55:55;101415.06;;;21.23;36.49
48926;BME280;39838;59.938;30.642;2023-05-15T07:58:23;101407.38;;;21.15;36.33
48926;BME280;39838;59.938;30.642;2023-05-15T08:00:50;101402.50;;;21.02;36.78
48926;BME280;39838;59.938;30.642;2023-05-15T08:03:18;101401.88;;;20.92;36.38
48926;BME280;39838;59.938;30.642;2023-05-15T08:05:45;101399.59;;;20.80;36.49
48926;BME280;39838;59.938;30.642;2023-05-15T08:08:13;101399.69;;;20.77;36.77
48926;BME280;39838;59.938;30.642;2023-05-15T08:10:40;101403.22;;;20.76;36.87
48926;BME280;39838;59.938;30.642;2023-05-15T08:13:09;101402.88;;;20.88;36.79
48926;BME280;39838;59.938;30.642;2023-05-15T08:15:36;101405.94;;;21.04;36.88
48926;BME280;39838;59.938;30.642;2023-05-15T08:18:07;101400.38;;;21.14;36.73
48926;BME280;39838;59.938;30.642;2023-05-15T08:20:35;101397.53;;;21.20;36.35
48926;BME280;39838;59.938;30.642;2023-05-15T08:23:03;101405.25;;;21.26;36.43
48926;BME280;39838;59.938;30.642;2023-05-15T08:25:30;101399.75;;;21.36;35.80
48926;BME280;39838;59.938;30.642;2023-05-15T08:27:57;101394.72;;;21.56;35.34
48926;BME280;39838;59.938;30.642;2023-05-15T08:30:26;101391.69;;;21.68;35.15
48926;BME280;39838;59.938;30.642;2023-05-15T08:32:53;101392.38;;;21.73;35.27
48926;BME280;39838;59.938;30.642;2023-05-15T08:35:21;101388.88;;;21.73;34.81
48926;BME280;39838;59.938;30.642;2023-05-15T08:37:49;101372.25;;;21.69;34.91
48926;BME280;39838;59.938;30.642;2023-05-15T08:40:17;101388.53;;;21.84;34.49
48926;BME280;39838;59.938;30.642;2023-05-15T08:42:47;101385.88;;;21.84;34.18
48926;BME280;39838;59.938;30.642;2023-05-15T08:45:15;101389.19;;;21.90;34.39
48926;BME280;39838;59.938;30.642;2023-05-15T08:47:44;101384.66;;;21.94;34.72
48926;BME280;39838;59.938;30.642;2023-05-15T08:50:13;101382.66;;;22.00;34.48
48926;BME280;39838;59.938;30.642;2023-05-15T08:52:42;101381.72;;;22.03;34.30
48926;BME280;39838;59.938;30.642;2023-05-15T08:55:10;101377.44;;;21.99;34.65
48926;BME280;39838;59.938;30.642;2023-05-15T08:57:38;101387.28;;;21.95;34.64
48926;BME280;39838;59.938;30.642;2023-05-15T09:00:06;101374.59;;;21.78;34.92
48926;BME280;39838;59.938;30.642;2023-05-15T09:02:38;101368.69;;;21.70;35.16
48926;BME280;39838;59.938;30.642;2023-05-15T09:05:08;101375.09;;;21.63;35.55
48926;BME280;39838;59.938;30.642;2023-05-15T09:07:37;101377.94;;;21.57;35.67
48926;BME280;39838;59.938;30.642;2023-05-15T09:10:06;101377.97;;;21.56;35.79
48926;BME280;39838;59.938;30.642;2023-05-15T09:12:35;101362.38;;;21.48;36.02
48926;BME280;39838;59.938;30.642;2023-05-15T09:15:10;101375.28;;;21.57;36.48
48926;BME280;39838;59.938;30.642;2023-05-15T09:17:38;101380.69;;;21.54;38.20
48926;BME280;39838;59.938;30.642;2023-05-15T09:20:23;101381.75;;;21.47;37.43
48926;BME280;39838;59.938;30.642;2023-05-15T09:22:51;101372.88;;;21.49;36.56
48926;BME280;39838;59.938;30.642;2023-05-15T09:25:32;101360.84;;;21.41;37.19
48926;BME280;39838;59.938;30.642;2023-05-15T09:28:00;101359.25;;;21.34;37.57
48926;BME280;39838;59.938;30.642;2023-05-15T09:30:27;101359.06;;;21.41;37.44
48926;BME280;39838;59.938;30.642;2023-05-15T09:32:58;101350.38;;;21.64;37.09
48926;BME280;39838;59.938;30.642;2023-05-15T09:35:35;101355.59;;;21.92;36.47
48926;BME280;39838;59.938;30.642;2023-05-15T09:38:04;101336.75;;;22.03;37.37
48926;BME280;39838;59.938;30.642;2023-05-15T09:40:33;101354.13;;;22.37;36.14
48926;BME280;39838;59.938;30.642;2023-05-15T09:43:01;101353.34;;;22.58;36.15
48926;BME280;39838;59.938;30.642;2023-05-15T09:45:29;101348.28;;;22.75;36.61
48926;BME280;39838;59.938;30.642;2023-05-15T09:47:58;101349.41;;;22.93;36.23
48926;BME280;39838;59.938;30.642;2023-05-15T09:50:33;101342.84;;;23.03;34.73
48926;BME280;39838;59.938;30.642;2023-05-15T09:53:02;101339.41;;;23.23;34.33
48926;BME280;39838;59.938;30.642;2023-05-15T09:55:31;101335.97;;;23.43;34.15
48926;BME280;39838;59.938;30.642;2023-05-15T09:58:09;101334.38;;;23.61;33.43
48926;BME280;39838;59.938;30.642;2023-05-15T10:00:38;101331.16;;;23.75;33.84
48926;BME280;39838;59.938;30.642;2023-05-15T10:03:07;101327.50;;;23.77;33.14
48926;BME280;39838;59.938;30.642;2023-05-15T10:05:36;101327.25;;;23.83;31.14
48926;BME280;39838;59.938;30.642;2023-05-15T10:08:04;101321.91;;;23.85;30.92
48926;BME280;39838;59.938;30.642;2023-05-15T10:10:32;101321.94;;;23.83;30.70
48926;BME280;39838;59.938;30.642;2023-05-15T10:13:00;101316.59;;;23.85;30.71
48926;BME280;39838;59.938;30.642;2023-05-15T10:15:30;101315.84;;;23.81;30.69
48926;BME280;39838;59.938;30.642;2023-05-15T10:17:58;101312.06;;;23.66;30.81
48926;BME280;39838;59.938;30.642;2023-05-15T10:20:25;101314.78;;;23.65;30.49
48926;BME280;39838;59.938;30.642;2023-05-15T10:22:55;101309.09;;;23.52;30.83
48926;BME280;39838;59.938;30.642;2023-05-15T10:25:26;101309.34;;;23.46;30.77
48926;BME280;39838;59.938;30.642;2023-05-15T10:27:59;101305.00;;;23.43;31.15
48926;BME280;39838;59.938;30.642;2023-05-15T10:30:27;101298.47;;;23.52;30.48
48926;BME280;39838;59.938;30.642;2023-05-15T10:32:55;101295.03;;;23.72;30.25
48926;BME280;39838;59.938;30.642;2023-05-15T10:37:50;101290.53;;;23.94;29.83
48926;BME280;39838;59.938;30.642;2023-05-15T10:40:19;101291.25;;;23.98;29.96
48926;BME280;39838;59.938;30.642;2023-05-15T10:42:47;101289.31;;;24.02;30.02
48926;BME280;39838;59.938;30.642;2023-05-15T10:45:15;101282.38;;;23.99;30.49
48926;BME280;39838;59.938;30.642;2023-05-15T10:47:43;101283.50;;;23.93;29.27
48926;BME280;39838;59.938;30.642;2023-05-15T10:50:11;101277.94;;;24.00;29.64
48926;BME280;39838;59.938;30.642;2023-05-15T10:52:39;101275.72;;;24.09;29.49
48926;BME280;39838;59.938;30.642;2023-05-15T10:55:12;101275.25;;;24.20;28.95
48926;BME280;39838;59.938;30.642;2023-05-15T10:57:41;101274.59;;;24.35;28.54
48926;BME280;39838;59.938;30.642;2023-05-15T11:00:24;101279.44;;;24.46;28.68
48926;BME280;39838;59.938;30.642;2023-05-15T11:02:52;101273.25;;;24.64;28.57
48926;BME280;39838;59.938;30.642;2023-05-15T11:05:22;101261.34;;;24.73;28.54
48926;BME280;39838;59.938;30.642;2023-05-15T11:08:23;101268.00;;;24.63;28.11
48926;BME280;39838;59.938;30.642;2023-05-15T11:10:53;101252.13;;;24.42;28.09
48926;BME280;39838;59.938;30.642;2023-05-15T11:13:22;101258.31;;;24.43;27.95
48926;BME280;39838;59.938;30.642;2023-05-15T11:15:50;101257.81;;;24.54;28.16
48926;BME280;39838;59.938;30.642;2023-05-15T11:18:19;101253.09;;;24.60;28.37
48926;BME280;39838;59.938;30.642;2023-05-15T11:21:05;101252.56;;;24.71;28.04
48926;BME280;39838;59.938;30.642;2023-05-15T11:23:38;101230.69;;;24.66;28.31
48926;BME280;39838;59.938;30.642;2023-05-15T11:26:06;101250.84;;;24.70;28.05
48926;BME280;39838;59.938;30.642;2023-05-15T11:28:41;101247.31;;;24.50;28.30
48926;BME280;39838;59.938;30.642;2023-05-15T11:31:12;101246.63;;;24.27;28.58
48926;BME280;39838;59.938;30.642;2023-05-15T11:33:40;101240.69;;;24.01;28.10
48926;BME280;39838;59.938;30.642;2023-05-15T11:36:07;101242.22;;;23.86;28.34
48926;BME280;39838;59.938;30.642;2023-05-15T11:38:37;101242.63;;;23.77;28.46
48926;BME280;39838;59.938;30.642;2023-05-15T11:41:17;101238.25;;;23.76;29.00
48926;BME280;39838;59.938;30.642;2023-05-15T11:43:46;101237.03;;;24.04;28.74
48926;BME280;39838;59.938;30.642;2023-05-15T11:46:15;101235.53;;;24.37;28.70
48926;BME280;39838;59.938;30.642;2023-05-15T11:48:44;101241.66;;;24.77;27.98
48926;BME280;39838;59.938;30.642;2023-05-15T11:51:18;101231.66;;;25.01;27.62
48926;BME280;39838;59.938;30.642;2023-05-15T11:53:48;101235.47;;;25.14;27.56
48926;BME280;39838;59.938;30.642;2023-05-15T11:56:16;101228.78;;;25.05;27.46
48926;BME280;39838;59.938;30.642;2023-05-15T11:58:49;101241.09;;;25.08;27.45
48926;BME280;39838;59.938;30.642;2023-05-15T12:01:16;101241.47;;;24.99;27.53
48926;BME280;39838;59.938;30.642;2023-05-15T12:03:46;101230.00;;;24.98;27.50
48926;BME280;39838;59.938;30.642;2023-05-15T12:06:14;101241.56;;;25.16;27.49
48926;BME280;39838;59.938;30.642;2023-05-15T12:08:42;101232.34;;;25.23;26.95
48926;BME280;39838;59.938;30.642;2023-05-15T12:11:10;101229.78;;;25.22;27.41
48926;BME280;39838;59.938;30.642;2023-05-15T12:13:38;101232.91;;;25.30;27.23
48926;BME280;39838;59.938;30.642;2023-05-15T12:16:09;101236.03;;;25.38;27.42
48926;BME280;39838;59.938;30.642;2023-05-15T12:18:36;101236.91;;;25.39;27.03
48926;BME280;39838;59.938;30.642;2023-05-15T12:21:04;101228.78;;;25.42;26.76
48926;BME280;39838;59.938;30.642;2023-05-15T12:23:31;101233.72;;;25.49;26.86
48926;BME280;39838;59.938;30.642;2023-05-15T12:26:00;101222.34;;;25.46;26.92
48926;BME280;39838;59.938;30.642;2023-05-15T12:28:31;101230.56;;;26.10;26.90
48926;BME280;39838;59.938;30.642;2023-05-15T12:30:58;101226.22;;;27.06;25.81
48926;BME280;39838;59.938;30.642;2023-05-15T12:33:27;101214.66;;;27.95;24.99
48926;BME280;39838;59.938;30.642;2023-05-15T12:35:55;101218.16;;;28.81;24.11
48926;BME280;39838;59.938;30.642;2023-05-15T12:38:23;101214.81;;;29.32;23.93
48926;BME280;39838;59.938;30.642;2023-05-15T12:40:51;101209.25;;;29.22;22.91
48926;BME280;39838;59.938;30.642;2023-05-15T12:43:23;101221.38;;;29.01;23.75
48926;BME280;39838;59.938;30.642;2023-05-15T12:45:51;101210.06;;;28.69;23.57
48926;BME280;39838;59.938;30.642;2023-05-15T12:48:19;101209.75;;;28.32;23.94
48926;BME280;39838;59.938;30.642;2023-05-15T12:50:48;101208.94;;;28.01;23.80
48926;BME280;39838;59.938;30.642;2023-05-15T12:53:16;101200.34;;;27.82;24.20
48926;BME280;39838;59.938;30.642;2023-05-15T12:55:44;101208.56;;;28.22;23.66